createdAt,value
2019-05-17T00:00:39.087Z,100327.32
2019-05-17T00:03:07.004Z,100329.63
2019-05-17T00:05:37.292Z,100333.68
2019-05-17T00:08:04.082Z,100334.27
2019-05-17T00:10:30.969Z,100332.17
2019-05-17T00:12:57.552Z,100329.39
2019-05-17T00:15:24.162Z,100334.34
2019-05-17T00:17:52.207Z,100332.28
2019-05-17T00:20:18.987Z,100327.88
2019-05-17T00:22:48.852Z,100316.70
2019-05-17T00:25:16.804Z,100321.53
2019-05-17T00:27:43.747Z,100309.86
2019-05-17T00:30:11.530Z,100309.41
2019-05-17T00:32:39.424Z,100298.39
2019-05-17T00:35:08.344Z,100303.74
2019-05-17T00:37:37.365Z,100300.70
2019-05-17T00:40:07.414Z,100296.41
2019-05-17T00:42:34.357Z,100295.29
2019-05-17T00:45:01.538Z,100298.83
2019-05-17T00:47:28.205Z,100296.45
2019-05-17T00:49:56.984Z,100300.33
2019-05-17T00:52:24.043Z,100286.16
2019-05-17T00:54:51.046Z,100283.57
2019-05-17T00:57:18.637Z,100279.89
2019-05-17T00:59:47.380Z,100274.75
2019-05-17T01:03:10.402Z,100278.25
2019-05-17T01:05:37.201Z,100280.34
2019-05-17T01:08:06.919Z,100277.84
2019-05-17T01:10:33.189Z,100273.41
2019-05-17T01:13:00.343Z,100263.84
2019-05-17T01:15:28.079Z,100272.67
2019-05-17T01:17:56.289Z,100273.58
2019-05-17T01:20:23.435Z,100282.27
2019-05-17T01:22:52.890Z,100285.59
2019-05-17T01:25:20.114Z,100274.87
2019-05-17T01:27:47.619Z,100273.09
2019-05-17T01:30:18.435Z,100275.89
2019-05-17T01:32:46.425Z,100269.43
2019-05-17T01:35:16.488Z,100271.00
2019-05-17T01:37:42.825Z,100270.82
2019-05-17T01:40:10.449Z,100261.16
2019-05-17T01:42:39.334Z,100258.75
2019-05-17T01:45:08.212Z,100255.16
2019-05-17T01:47:36.879Z,100254.94
2019-05-17T01:50:08.026Z,100266.05
2019-05-17T01:52:36.764Z,100249.78
2019-05-17T01:55:06.680Z,100262.31
2019-05-17T01:57:33.891Z,100260.00
2019-05-17T02:00:00.684Z,100256.34
2019-05-17T02:02:29.449Z,100263.56
2019-05-17T02:04:56.944Z,100259.69
2019-05-17T02:07:23.718Z,100255.22
2019-05-17T02:09:50.660Z,100250.20
2019-05-17T02:12:17.645Z,100249.50
2019-05-17T02:14:46.754Z,100248.77
2019-05-17T02:17:17.285Z,100243.28
2019-05-17T02:19:43.467Z,100238.30
2019-05-17T02:22:10.133Z,100237.07
2019-05-17T02:24:37.844Z,100244.92
2019-05-17T02:27:04.640Z,100247.13
2019-05-17T02:29:32.189Z,100242.94
2019-05-17T02:31:59.528Z,100248.94
2019-05-17T02:34:27.673Z,100241.05
2019-05-17T02:36:54.946Z,100244.37
2019-05-17T02:39:23.274Z,100252.67
2019-05-17T02:41:53.334Z,100261.23
2019-05-17T02:44:23.306Z,100264.01
2019-05-17T02:46:49.010Z,100260.70
2019-05-17T02:49:16.077Z,100259.09
2019-05-17T02:51:43.217Z,100255.72
2019-05-17T02:54:13.010Z,100258.58
2019-05-17T02:56:38.499Z,100253.73
2019-05-17T02:59:05.509Z,100253.30
2019-05-17T03:01:33.152Z,100251.52
2019-05-17T03:04:03.558Z,100253.70
2019-05-17T03:06:32.703Z,100253.02
2019-05-17T03:08:58.569Z,100256.86
2019-05-17T03:11:25.643Z,100256.69
2019-05-17T03:13:52.719Z,100259.75
2019-05-17T03:16:23.405Z,100254.55
2019-05-17T03:18:48.277Z,100248.86
2019-05-17T03:21:15.755Z,100250.79
2019-05-17T03:23:43.522Z,100253.44
2019-05-17T03:26:13.313Z,100253.27
2019-05-17T03:28:42.654Z,100243.25
2019-05-17T03:31:17.021Z,100236.65
2019-05-17T03:33:45.950Z,100243.98
2019-05-17T03:36:16.871Z,100247.20
2019-05-17T03:38:43.133Z,100236.86
2019-05-17T03:41:22.973Z,100235.57
2019-05-17T03:43:41.232Z,100243.63
2019-05-17T03:46:07.212Z,100238.43
2019-05-17T03:48:34.095Z,100244.64
2019-05-17T03:51:02.660Z,100243.59
2019-05-17T03:53:33.137Z,100249.39
2019-05-17T03:56:02.643Z,100242.94
2019-05-17T03:58:33.035Z,100249.11
2019-05-17T04:00:58.986Z,100250.34
2019-05-17T04:03:31.001Z,100253.23
2019-05-17T04:05:59.326Z,100255.89
2019-05-17T04:08:26.385Z,100266.47
2019-05-17T04:10:55.735Z,100269.43
2019-05-17T04:13:24.594Z,100264.57
2019-05-17T04:15:53.651Z,100268.55
2019-05-17T04:18:23.565Z,100262.92
2019-05-17T04:20:52.771Z,100267.23
2019-05-17T04:23:23.235Z,100264.14
2019-05-17T04:25:53.372Z,100267.78
2019-05-17T04:28:22.956Z,100271.59
2019-05-17T04:30:52.785Z,100258.66
2019-05-17T04:33:23.222Z,100267.41
2019-05-17T04:35:53.793Z,100263.28
2019-05-17T04:38:19.044Z,100257.86
2019-05-17T04:40:45.603Z,100267.22
2019-05-17T04:43:13.849Z,100258.01
2019-05-17T04:45:42.618Z,100256.59
2019-05-17T04:48:12.840Z,100262.83
2019-05-17T04:50:38.334Z,100254.24
2019-05-17T04:53:06.375Z,100258.02
2019-05-17T04:55:34.114Z,100259.98
2019-05-17T04:58:03.855Z,100259.72
2019-05-17T05:00:34.160Z,100263.64
2019-05-17T05:03:03.846Z,100260.86
2019-05-17T05:05:32.780Z,100269.73
2019-05-17T05:07:58.535Z,100267.31
2019-05-17T05:10:26.342Z,100268.50
2019-05-17T05:12:54.178Z,100267.36
2019-05-17T05:15:26.559Z,100264.96
2019-05-17T05:17:54.724Z,100264.23
2019-05-17T05:20:22.122Z,100268.80
2019-05-17T05:22:52.660Z,100273.81
2019-05-17T05:25:21.570Z,100271.72
2019-05-17T05:27:47.788Z,100275.51
2019-05-17T05:30:14.657Z,100273.54
2019-05-17T05:32:42.670Z,100272.79
2019-05-17T05:35:12.379Z,100281.87
2019-05-17T05:37:42.291Z,100279.81
2019-05-17T05:40:12.324Z,100285.66
2019-05-17T05:42:38.112Z,100284.87
2019-05-17T05:45:05.278Z,100286.33
2019-05-17T05:47:32.486Z,100279.73
2019-05-17T05:50:01.723Z,100280.98
2019-05-17T05:52:28.372Z,100282.55
2019-05-17T05:54:54.987Z,100279.86
2019-05-17T05:57:22.030Z,100283.52
2019-05-17T05:59:51.668Z,100281.27
2019-05-17T06:02:21.681Z,100283.55
2019-05-17T06:04:48.941Z,100287.72
2019-05-17T06:07:15.864Z,100286.45
2019-05-17T06:09:43.707Z,100282.50
2019-05-17T06:12:23.380Z,100285.75
2019-05-17T06:14:41.716Z,100285.79
2019-05-17T06:17:12.463Z,100282.50
2019-05-17T06:19:39.065Z,100280.39
2019-05-17T06:22:05.778Z,100284.07
2019-05-17T06:24:32.918Z,100277.73
2019-05-17T06:27:01.859Z,100280.08
2019-05-17T06:29:32.591Z,100286.36
2019-05-17T06:31:59.006Z,100288.66
2019-05-17T06:34:25.996Z,100290.59
2019-05-17T06:36:53.520Z,100286.73
2019-05-17T06:39:22.446Z,100291.92
2019-05-17T06:41:51.812Z,100292.41
2019-05-17T06:44:21.479Z,100290.28
2019-05-17T06:46:47.825Z,100295.78
2019-05-17T06:49:14.490Z,100302.61
2019-05-17T06:51:42.562Z,100309.27
2019-05-17T06:54:12.263Z,100307.71
2019-05-17T06:56:41.642Z,100314.09
2019-05-17T06:59:08.041Z,100317.73
2019-05-17T07:01:35.762Z,100324.75
2019-05-17T07:04:02.554Z,100325.41
2019-05-17T07:06:31.436Z,100329.29
2019-05-17T07:08:58.055Z,100329.63
2019-05-17T07:11:26.223Z,100331.27
2019-05-17T07:13:52.787Z,100324.63
2019-05-17T07:16:20.603Z,100321.70
2019-05-17T07:18:49.402Z,100328.59
2019-05-17T07:21:20.545Z,100327.81
2019-05-17T07:23:49.866Z,100326.00
2019-05-17T07:26:19.568Z,100319.45
2019-05-17T07:28:49.774Z,100318.44
2019-05-17T07:31:19.110Z,100327.68
2019-05-17T07:33:46.693Z,100329.05
2019-05-17T07:36:14.580Z,100325.38
2019-05-17T07:38:41.326Z,100322.24
2019-05-17T07:41:10.065Z,100324.89
2019-05-17T07:43:36.823Z,100327.95
2019-05-17T07:46:03.573Z,100329.38
2019-05-17T07:48:32.486Z,100324.54
2019-05-17T07:50:59.620Z,100329.48
2019-05-17T07:53:27.600Z,100322.58
2019-05-17T07:55:59.713Z,100323.07
2019-05-17T07:58:26.923Z,100322.80
2019-05-17T08:00:54.040Z,100324.95
2019-05-17T08:03:24.278Z,100323.27
2019-05-17T08:05:51.598Z,100318.60
2019-05-17T08:08:20.838Z,100322.93
2019-05-17T08:10:51.039Z,100321.11
2019-05-17T08:13:29.908Z,100321.87
2019-05-17T08:15:54.127Z,100315.86
2019-05-17T08:18:21.022Z,100315.89
2019-05-17T08:20:49.985Z,100325.53
2019-05-17T08:23:16.657Z,100324.23
2019-05-17T08:25:52.751Z,100324.77
2019-05-17T08:28:12.220Z,100317.86
2019-05-17T08:30:41.478Z,100312.75
2019-05-17T08:33:11.317Z,100308.55
2019-05-17T08:35:40.045Z,100309.45
2019-05-17T08:38:09.978Z,100313.94
2019-05-17T08:40:36.203Z,100315.39
2019-05-17T08:43:05.812Z,100306.28
2019-05-17T08:45:35.663Z,100309.18
2019-05-17T08:48:04.315Z,100309.18
2019-05-17T08:50:32.579Z,100302.00
2019-05-17T08:53:00.535Z,100300.39
2019-05-17T08:55:29.768Z,100298.53
2019-05-17T08:57:56.176Z,100296.85
2019-05-17T09:00:26.889Z,100302.27
2019-05-17T09:02:54.882Z,100291.80
2019-05-17T09:05:22.008Z,100295.70
2019-05-17T09:07:49.336Z,100295.68
2019-05-17T09:10:17.002Z,100294.38
2019-05-17T09:12:44.590Z,100296.53
2019-05-17T09:15:12.433Z,100293.75
2019-05-17T09:17:41.208Z,100290.95
2019-05-17T09:20:10.717Z,100282.86
2019-05-17T09:22:39.634Z,100279.41
2019-05-17T09:25:11.004Z,100282.95
2019-05-17T09:27:36.593Z,100284.73
2019-05-17T09:30:05.935Z,100290.75
2019-05-17T09:32:34.187Z,100274.41
2019-05-17T09:35:01.044Z,100295.34
2019-05-17T09:37:30.335Z,100279.94
2019-05-17T09:39:56.767Z,100277.04
2019-05-17T09:42:23.459Z,100278.28
2019-05-17T09:44:50.823Z,100266.97
2019-05-17T09:47:17.693Z,100271.56
2019-05-17T09:49:45.476Z,100273.05
2019-05-17T09:52:14.665Z,100270.80
2019-05-17T09:54:45.060Z,100272.03
2019-05-17T09:57:10.863Z,100273.07
2019-05-17T09:59:37.829Z,100279.78
2019-05-17T10:02:06.950Z,100277.33
2019-05-17T10:04:34.320Z,100281.20
2019-05-17T10:07:01.866Z,100271.61
2019-05-17T10:09:28.752Z,100278.93
2019-05-17T10:11:56.633Z,100279.17
2019-05-17T10:14:27.683Z,100283.10
2019-05-17T10:16:52.211Z,100287.42
2019-05-17T10:19:23.392Z,100285.41
2019-05-17T10:21:50.211Z,100286.66
2019-05-17T10:24:17.024Z,100294.60
2019-05-17T10:26:43.953Z,100292.70
2019-05-17T10:29:10.725Z,100296.39
2019-05-17T10:31:39.712Z,100291.23
2019-05-17T10:34:09.455Z,100293.12
2019-05-17T10:36:40.298Z,100285.98
2019-05-17T10:39:09.779Z,100282.23
2019-05-17T10:42:32.328Z,100284.53
2019-05-17T10:45:00.305Z,100284.09
2019-05-17T10:47:27.265Z,100287.66
2019-05-17T10:49:54.126Z,100284.55
2019-05-17T10:52:21.398Z,100283.23
2019-05-17T10:54:49.773Z,100290.84
2019-05-17T10:57:16.577Z,100279.09
2019-05-17T10:59:43.452Z,100279.83
2019-05-17T11:02:12.779Z,100281.37
2019-05-17T11:04:40.279Z,100279.34
2019-05-17T11:07:11.139Z,100288.40
2019-05-17T11:09:40.242Z,100280.91
2019-05-17T11:12:08.082Z,100288.11
2019-05-17T11:14:50.298Z,100286.41
2019-05-17T11:17:05.560Z,100284.16
2019-05-17T11:19:32.250Z,100294.70
2019-05-17T11:22:00.063Z,100292.16
2019-05-17T11:24:26.762Z,100296.33
2019-05-17T11:26:53.879Z,100299.33
2019-05-17T11:29:22.721Z,100298.97
2019-05-17T11:31:49.963Z,100300.86
2019-05-17T11:34:16.930Z,100300.12
2019-05-17T11:36:43.845Z,100298.69
2019-05-17T11:39:11.539Z,100283.84
2019-05-17T11:41:38.212Z,100304.70
2019-05-17T11:44:05.388Z,100300.24
2019-05-17T11:46:36.527Z,100293.53
2019-05-17T11:49:02.819Z,100303.23
2019-05-17T11:51:29.597Z,100303.75
2019-05-17T11:53:57.324Z,100303.97
2019-05-17T11:56:24.111Z,100310.12
2019-05-17T11:58:50.910Z,100296.65
2019-05-17T12:01:18.263Z,100297.22
2019-05-17T12:03:45.071Z,100302.28
2019-05-17T12:06:11.954Z,100316.17
2019-05-17T12:08:38.769Z,100311.91
2019-05-17T12:11:06.847Z,100312.83
2019-05-17T12:13:35.698Z,100306.41
2019-05-17T12:16:04.030Z,100303.27
2019-05-17T12:18:31.025Z,100306.94
2019-05-17T12:20:59.057Z,100296.86
2019-05-17T12:23:25.805Z,100291.40
2019-05-17T12:25:53.550Z,100297.52
2019-05-17T12:28:21.603Z,100295.20
2019-05-17T12:30:48.389Z,100302.13
2019-05-17T12:33:16.122Z,100307.38
2019-05-17T12:35:42.981Z,100312.92
2019-05-17T12:38:09.985Z,100315.16
2019-05-17T12:40:37.870Z,100308.14
2019-05-17T12:43:04.643Z,100310.88
2019-05-17T12:45:31.803Z,100308.09
2019-05-17T12:47:58.865Z,100304.40
2019-05-17T12:50:25.938Z,100306.17
2019-05-17T12:52:53.682Z,100313.70
2019-05-17T12:55:20.772Z,100303.59
2019-05-17T12:58:43.933Z,100309.23
2019-05-17T13:01:11.575Z,100300.98
2019-05-17T13:03:39.669Z,100309.23
2019-05-17T13:06:06.495Z,100312.12
2019-05-17T13:08:34.122Z,100306.93
2019-05-17T13:11:01.724Z,100308.69
2019-05-17T13:13:28.930Z,100315.28
2019-05-17T13:15:55.754Z,100319.73
2019-05-17T13:18:23.472Z,100330.25
2019-05-17T13:20:50.637Z,100345.27
2019-05-17T13:23:19.563Z,100345.73
2019-05-17T13:25:48.761Z,100349.76
2019-05-17T13:28:15.927Z,100354.25
2019-05-17T13:30:43.647Z,100347.65
2019-05-17T13:33:10.740Z,100361.17
2019-05-17T13:35:38.793Z,100357.44
2019-05-17T13:38:05.483Z,100350.81
2019-05-17T13:40:39.287Z,100357.94
2019-05-17T13:43:01.019Z,100373.97
2019-05-17T13:45:27.940Z,100366.42
2019-05-17T13:47:55.785Z,100361.89
2019-05-17T13:50:23.185Z,100361.45
2019-05-17T13:52:50.327Z,100369.05
2019-05-17T13:55:20.859Z,100376.98
2019-05-17T13:57:48.648Z,100380.83
2019-05-17T14:00:18.982Z,100379.47
2019-05-17T14:02:46.916Z,100379.98
2019-05-17T14:05:14.317Z,100385.23
2019-05-17T14:07:41.132Z,100378.17
2019-05-17T14:10:24.484Z,100386.47
2019-05-17T14:12:39.851Z,100385.13
2019-05-17T14:15:08.434Z,100383.48
2019-05-17T14:17:35.223Z,100389.77
2019-05-17T14:20:04.023Z,100381.77
2019-05-17T14:22:31.065Z,100380.55
2019-05-17T14:24:58.808Z,100392.32
2019-05-17T14:27:26.129Z,100387.45
2019-05-17T14:29:52.798Z,100388.78
2019-05-17T14:32:20.584Z,100394.16
2019-05-17T14:34:49.781Z,100383.88
2019-05-17T14:37:16.688Z,100387.27
2019-05-17T14:39:43.290Z,100394.39
2019-05-17T14:42:10.720Z,100397.08
2019-05-17T14:44:38.882Z,100396.86
2019-05-17T14:47:05.882Z,100393.25
2019-05-17T14:49:32.687Z,100386.95
2019-05-17T14:51:59.743Z,100373.16
2019-05-17T14:54:28.515Z,100385.64
2019-05-17T14:56:56.191Z,100381.12
2019-05-17T14:59:22.951Z,100382.66
2019-05-17T15:01:50.874Z,100381.05
2019-05-17T15:04:20.181Z,100383.06
2019-05-17T15:06:47.890Z,100381.53
2019-05-17T15:09:14.694Z,100379.40
2019-05-17T15:12:38.575Z,100375.52
2019-05-17T15:15:06.950Z,100371.14
2019-05-17T15:17:35.188Z,100366.25
2019-05-17T15:20:05.455Z,100373.70
2019-05-17T15:22:33.173Z,100368.62
2019-05-17T15:25:01.374Z,100365.71
2019-05-17T15:27:29.659Z,100366.31
2019-05-17T15:29:56.437Z,100360.78
2019-05-17T15:32:23.580Z,100363.30
2019-05-17T15:34:51.484Z,100361.88
2019-05-17T15:37:18.469Z,100358.00
2019-05-17T15:39:45.080Z,100361.09
2019-05-17T15:42:12.876Z,100358.83
2019-05-17T15:44:39.578Z,100351.30
2019-05-17T15:47:08.354Z,100352.70
2019-05-17T15:49:35.669Z,100357.93
2019-05-17T15:52:02.756Z,100352.98
2019-05-17T15:54:29.357Z,100351.81
2019-05-17T15:56:55.998Z,100348.69
2019-05-17T15:59:22.807Z,100343.98
2019-05-17T16:01:49.591Z,100348.59
2019-05-17T16:04:16.793Z,100352.41
2019-05-17T16:06:46.083Z,100348.69
2019-05-17T16:09:12.795Z,100353.91
2019-05-17T16:11:39.669Z,100348.75
2019-05-17T16:14:06.565Z,100349.42
2019-05-17T16:16:33.632Z,100348.69
2019-05-17T16:19:01.586Z,100351.33
2019-05-17T16:21:28.361Z,100345.27
2019-05-17T16:23:56.347Z,100355.36
2019-05-17T16:26:23.993Z,100359.92
2019-05-17T16:28:51.085Z,100351.20
2019-05-17T16:31:18.238Z,100350.38
2019-05-17T16:33:45.508Z,100348.34
2019-05-17T16:36:13.374Z,100347.48
2019-05-17T16:38:39.989Z,100342.42
2019-05-17T16:41:15.400Z,100348.05
2019-05-17T16:43:42.347Z,100348.47
2019-05-17T16:46:09.974Z,100355.22
2019-05-17T16:48:37.005Z,100343.53
2019-05-17T16:51:04.253Z,100347.34
2019-05-17T16:53:32.236Z,100343.55
2019-05-17T16:55:59.227Z,100348.55
2019-05-17T16:58:25.998Z,100357.12
2019-05-17T17:00:57.955Z,100350.69
2019-05-17T17:03:24.776Z,100346.36
2019-05-17T17:05:51.556Z,100347.83
2019-05-17T17:08:18.559Z,100348.71
2019-05-17T17:10:45.647Z,100348.44
2019-05-17T17:13:13.746Z,100351.14
2019-05-17T17:15:43.505Z,100357.67
2019-05-17T17:18:10.424Z,100353.61
2019-05-17T17:20:37.705Z,100356.32
2019-05-17T17:23:04.536Z,100352.31
2019-05-17T17:25:31.839Z,100361.52
2019-05-17T17:28:00.499Z,100351.59
2019-05-17T17:30:29.941Z,100364.81
2019-05-17T17:32:57.890Z,100354.50
2019-05-17T17:35:25.754Z,100362.44
2019-05-17T17:37:52.448Z,100355.53
2019-05-17T17:40:22.092Z,100353.74
2019-05-17T17:42:49.205Z,100358.73
2019-05-17T17:45:20.547Z,100359.81
2019-05-17T17:47:49.692Z,100364.55
2019-05-17T17:50:17.059Z,100370.28
2019-05-17T17:52:49.525Z,100366.97
2019-05-17T17:55:17.800Z,100370.00
2019-05-17T17:57:44.904Z,100368.30
2019-05-17T18:00:13.220Z,100372.55
2019-05-17T18:02:41.180Z,100359.84
2019-05-17T18:05:08.389Z,100369.02
2019-05-17T18:07:35.293Z,100369.02
2019-05-17T18:10:05.520Z,100371.89
2019-05-17T18:12:34.188Z,100373.77
2019-05-17T18:15:06.319Z,100374.66
2019-05-17T18:17:39.064Z,100390.55
2019-05-17T18:20:00.249Z,100385.32
2019-05-17T18:22:28.087Z,100387.85
2019-05-17T18:24:54.830Z,100387.50
2019-05-17T18:27:23.004Z,100392.66
2019-05-17T18:29:49.753Z,100400.91
2019-05-17T18:32:16.515Z,100400.00
2019-05-17T18:34:43.609Z,100404.86
2019-05-17T18:37:12.957Z,100407.48
2019-05-17T18:39:43.061Z,100408.47
2019-05-17T18:42:09.905Z,100414.98
2019-05-17T18:44:36.981Z,100416.28
2019-05-17T18:47:09.427Z,100414.80
2019-05-17T18:49:37.275Z,100424.23
2019-05-17T18:52:05.487Z,100423.39
2019-05-17T18:54:33.234Z,100424.03
2019-05-17T18:57:00.054Z,100436.14
2019-05-17T18:59:27.087Z,100435.80
2019-05-17T19:01:53.875Z,100439.59
2019-05-17T19:04:20.931Z,100441.98
2019-05-17T19:06:48.589Z,100438.84
2019-05-17T19:09:15.618Z,100438.04
2019-05-17T19:11:42.501Z,100435.72
2019-05-17T19:14:09.179Z,100438.07
2019-05-17T19:17:33.601Z,100436.47
2019-05-17T19:20:00.351Z,100437.13
2019-05-17T19:22:27.516Z,100434.31
2019-05-17T19:24:55.560Z,100439.13
2019-05-17T19:27:23.412Z,100441.06
2019-05-17T19:29:50.453Z,100438.25
2019-05-17T19:32:18.538Z,100426.91
2019-05-17T19:34:46.253Z,100433.45
2019-05-17T19:37:14.042Z,100430.89
2019-05-17T19:39:41.391Z,100429.73
2019-05-17T19:42:08.647Z,100422.36
2019-05-17T19:44:36.036Z,100427.88
2019-05-17T19:47:04.484Z,100422.59
2019-05-17T19:49:31.381Z,100428.45
2019-05-17T19:51:58.116Z,100425.06
2019-05-17T19:54:24.983Z,100432.92
2019-05-17T19:56:54.121Z,100431.59
2019-05-17T19:59:25.088Z,100429.73
2019-05-17T20:02:06.509Z,100419.70
2019-05-17T20:04:55.073Z,100426.13
2019-05-17T20:07:38.606Z,100421.52
2019-05-17T20:10:19.613Z,100432.58
2019-05-17T20:13:00.619Z,100432.34
2019-05-17T20:15:43.150Z,100429.32
2019-05-17T20:18:28.509Z,100423.34
2019-05-17T20:20:57.705Z,100423.52
2019-05-17T20:23:25.551Z,100425.00
2019-05-17T20:25:54.066Z,100424.64
2019-05-17T20:28:20.938Z,100426.89
2019-05-17T20:30:48.689Z,100419.66
2019-05-17T20:33:16.023Z,100424.58
2019-05-17T20:35:44.092Z,100410.28
2019-05-17T20:38:11.190Z,100410.39
2019-05-17T20:40:39.185Z,100415.08
2019-05-17T20:43:07.811Z,100429.51
2019-05-17T20:45:35.205Z,100425.84
2019-05-17T20:48:01.996Z,100425.42
2019-05-17T20:50:28.893Z,100423.81
2019-05-17T20:52:55.635Z,100422.56
2019-05-17T20:55:22.370Z,100426.54
2019-05-17T20:57:49.011Z,100421.27
2019-05-17T21:01:13.503Z,100422.03
2019-05-17T21:03:40.630Z,100425.48
2019-05-17T21:06:07.608Z,100433.19
2019-05-17T21:08:45.540Z,100433.31
2019-05-17T21:11:04.652Z,100431.45
2019-05-17T21:13:31.966Z,100433.31
2019-05-17T21:15:59.695Z,100436.81
2019-05-17T21:18:28.010Z,100431.83
2019-05-17T21:20:54.592Z,100432.68
2019-05-17T21:23:24.013Z,100439.32
2019-05-17T21:25:51.074Z,100435.41
2019-05-17T21:28:19.083Z,100437.50
2019-05-17T21:30:49.085Z,100434.39
2019-05-17T21:33:16.738Z,100431.55
2019-05-17T21:35:45.438Z,100430.37
2019-05-17T21:38:12.336Z,100430.94
2019-05-17T21:40:39.121Z,100427.16
2019-05-17T21:43:05.848Z,100426.78
2019-05-17T21:45:32.517Z,100430.13
2019-05-17T21:48:01.435Z,100433.52
2019-05-17T21:50:33.132Z,100437.09
2019-05-17T21:52:59.728Z,100437.78
2019-05-17T21:55:26.545Z,100434.62
2019-05-17T21:57:53.371Z,100437.42
2019-05-17T22:00:27.894Z,100444.27
2019-05-17T22:02:56.439Z,100444.33
2019-05-17T22:05:23.107Z,100446.38
2019-05-17T22:07:49.729Z,100438.96
2019-05-17T22:10:16.581Z,100436.38
2019-05-17T22:12:46.900Z,100431.45
2019-05-17T22:15:16.029Z,100431.53
2019-05-17T22:17:42.714Z,100417.34
2019-05-17T22:20:09.796Z,100421.22
2019-05-17T22:22:36.748Z,100419.81
2019-05-17T22:25:06.133Z,100418.69
2019-05-17T22:27:33.994Z,100404.42
2019-05-17T22:30:00.977Z,100405.36
2019-05-17T22:32:28.007Z,100401.42
2019-05-17T22:34:54.684Z,100399.55
2019-05-17T22:37:21.533Z,100404.48
2019-05-17T22:39:49.416Z,100393.97
2019-05-17T22:42:16.572Z,100404.77
2019-05-17T22:44:43.499Z,100390.36
2019-05-17T22:47:10.312Z,100392.73
2019-05-17T22:49:36.929Z,100389.98
2019-05-17T22:52:03.773Z,100393.14
2019-05-17T22:54:31.142Z,100394.38
2019-05-17T22:56:57.943Z,100398.26
2019-05-17T22:59:24.935Z,100398.07
2019-05-17T23:01:52.778Z,100402.63
2019-05-17T23:04:19.872Z,100397.05
2019-05-17T23:06:46.594Z,100400.34
2019-05-17T23:09:13.227Z,100398.75
2019-05-17T23:11:39.949Z,100400.14
2019-05-17T23:14:06.774Z,100397.88
2019-05-17T23:16:50.248Z,100402.80
2019-05-17T23:19:05.881Z,100402.41
2019-05-17T23:21:33.225Z,100403.96
2019-05-17T23:23:59.837Z,100413.04
2019-05-17T23:26:26.634Z,100418.89
2019-05-17T23:28:54.572Z,100422.09
2019-05-17T23:31:21.574Z,100417.57
2019-05-17T23:33:48.429Z,100414.14
2019-05-17T23:36:15.546Z,100419.48
2019-05-17T23:38:43.373Z,100419.48
2019-05-17T23:41:11.548Z,100421.35
2019-05-17T23:43:39.630Z,100415.76
2019-05-17T23:46:06.614Z,100416.59
2019-05-17T23:48:33.425Z,100414.27
2019-05-17T23:51:00.033Z,100414.98
2019-05-17T23:53:27.173Z,100412.81
2019-05-17T23:55:55.103Z,100411.68
2019-05-17T23:58:21.694Z,100406.00
